createdAt,value
2022-10-06T00:01:13.733Z,99821.16
2022-10-06T00:03:41.545Z,99813.66
2022-10-06T00:06:11.986Z,99792.94
2022-10-06T00:08:41.005Z,99814.97
2022-10-06T00:11:10.434Z,99867.13
2022-10-06T00:13:37.844Z,99874.56
2022-10-06T00:16:15.307Z,99811.66
2022-10-06T00:18:42.395Z,99865.81
2022-10-06T00:21:09.746Z,99816.16
2022-10-06T00:23:37.045Z,99871.63
2022-10-06T00:26:04.625Z,99811.34
2022-10-06T00:28:32.267Z,99908.25
2022-10-06T00:31:03.177Z,99798.00
2022-10-06T00:33:30.253Z,99831.53
2022-10-06T00:35:59.029Z,99842.31
2022-10-06T00:38:27.524Z,99873.72
2022-10-06T00:40:55.246Z,99894.66
2022-10-06T00:43:44.000Z,99918.47
2022-10-06T00:46:24.223Z,99930.91
2022-10-06T00:49:30.620Z,99847.31
2022-10-06T00:52:07.429Z,99861.22
2022-10-06T00:54:36.301Z,99805.47
2022-10-06T00:57:05.092Z,99899.66
2022-10-06T00:59:33.102Z,99904.25
2022-10-06T01:02:03.439Z,99860.53
2022-10-06T01:04:35.565Z,99881.88
2022-10-06T01:07:03.537Z,99855.69
2022-10-06T01:09:31.558Z,99874.69
2022-10-06T01:12:04.341Z,99977.03
2022-10-06T01:14:32.150Z,99884.88
2022-10-06T01:17:29.714Z,99914.31
2022-10-06T01:20:09.269Z,99909.53
2022-10-06T01:22:55.513Z,99908.03
2022-10-06T01:25:23.207Z,99877.16
2022-10-06T01:27:53.965Z,99959.91
2022-10-06T01:30:52.841Z,99874.63
2022-10-06T01:33:22.573Z,99880.09
2022-10-06T01:35:52.788Z,99895.44
2022-10-06T01:38:21.867Z,99923.19
2022-10-06T01:40:53.670Z,99932.84
2022-10-06T01:43:21.426Z,99942.34
2022-10-06T01:45:57.048Z,99898.59
2022-10-06T01:48:25.786Z,99945.56
2022-10-06T01:50:54.881Z,100035.47
2022-10-06T01:53:22.668Z,99973.94
2022-10-06T01:55:49.872Z,99971.94
2022-10-06T01:58:21.081Z,99941.72
2022-10-06T02:00:48.462Z,99975.13
2022-10-06T02:03:15.363Z,99998.22
2022-10-06T02:05:42.491Z,100004.19
2022-10-06T02:08:11.983Z,100003.41
2022-10-06T02:10:39.455Z,99956.88
2022-10-06T02:13:14.740Z,99962.75
2022-10-06T02:15:41.760Z,100000.56
2022-10-06T02:18:08.864Z,99977.88
2022-10-06T02:20:36.349Z,99995.78
2022-10-06T02:23:03.463Z,100018.91
2022-10-06T02:25:30.389Z,100026.84
2022-10-06T02:27:57.398Z,99989.47
2022-10-06T02:30:24.498Z,100006.97
2022-10-06T02:32:52.201Z,100032.81
2022-10-06T02:35:20.119Z,100003.75
2022-10-06T02:37:48.441Z,100030.03
2022-10-06T02:40:18.388Z,100020.91
2022-10-06T02:42:46.073Z,100034.81
2022-10-06T02:45:17.004Z,100031.63
2022-10-06T02:47:45.046Z,100006.59
2022-10-06T02:50:13.136Z,100062.22
2022-10-06T02:52:42.694Z,100024.47
2022-10-06T02:55:11.220Z,100025.28
2022-10-06T02:57:38.432Z,100057.06
2022-10-06T03:00:07.648Z,100043.16
2022-10-06T03:02:35.506Z,99998.63
2022-10-06T03:05:02.720Z,100066.63
2022-10-06T03:07:29.653Z,100014.91
2022-10-06T03:09:57.725Z,100052.25
2022-10-06T03:12:25.939Z,100022.00
2022-10-06T03:14:52.920Z,100016.06
2022-10-06T03:17:20.557Z,100047.44
2022-10-06T03:19:52.605Z,100005.28
2022-10-06T03:22:19.580Z,100054.56
2022-10-06T03:24:52.525Z,100015.63
2022-10-06T03:27:21.113Z,100015.59
2022-10-06T03:29:49.010Z,100069.59
2022-10-06T03:32:16.392Z,100071.59
2022-10-06T03:34:44.124Z,100043.41
2022-10-06T03:37:14.355Z,100078.34
2022-10-06T03:39:41.662Z,100127.38
2022-10-06T03:42:08.742Z,100061.69
2022-10-06T03:44:35.822Z,100085.56
2022-10-06T03:47:03.747Z,100151.66
2022-10-06T03:49:32.275Z,100115.09
2022-10-06T03:51:59.381Z,100100.78
2022-10-06T03:54:30.751Z,100091.59
2022-10-06T03:56:57.840Z,100061.78
2022-10-06T03:59:24.901Z,100056.94
2022-10-06T04:01:53.294Z,100070.41
2022-10-06T04:04:28.205Z,100079.13
2022-10-06T04:07:00.697Z,100067.94
2022-10-06T04:09:27.823Z,100157.03
2022-10-06T04:11:56.064Z,100098.50
2022-10-06T04:14:22.971Z,100100.84
2022-10-06T04:16:51.277Z,100112.75
2022-10-06T04:19:33.762Z,100140.16
2022-10-06T04:22:00.689Z,100115.59
2022-10-06T04:24:28.944Z,100150.50
2022-10-06T04:27:17.927Z,100166.44
2022-10-06T04:29:51.232Z,100168.16
2022-10-06T04:32:19.383Z,100159.91
2022-10-06T04:34:46.279Z,100122.06
2022-10-06T04:37:13.725Z,100161.84
2022-10-06T04:39:42.231Z,100115.66
2022-10-06T04:42:09.768Z,100185.38
2022-10-06T04:44:36.980Z,100168.25
2022-10-06T04:47:04.665Z,100193.72
2022-10-06T04:49:31.988Z,100146.00
2022-10-06T04:51:59.159Z,100143.16
2022-10-06T04:54:32.707Z,100133.16
2022-10-06T04:57:01.009Z,100159.44
2022-10-06T04:59:48.556Z,100131.53
2022-10-06T05:02:17.268Z,100162.59
2022-10-06T05:04:45.805Z,100165.72
2022-10-06T05:07:15.199Z,100124.31
2022-10-06T05:09:42.491Z,100113.06
2022-10-06T05:12:12.377Z,100195.88
2022-10-06T05:14:40.343Z,100138.59
2022-10-06T05:17:07.268Z,100175.03
2022-10-06T05:19:36.987Z,100156.66
2022-10-06T05:22:04.342Z,100181.22
2022-10-06T05:24:32.748Z,100209.16
2022-10-06T05:27:02.128Z,100190.47
2022-10-06T05:29:31.260Z,100194.88
2022-10-06T05:31:58.878Z,100159.22
2022-10-06T05:34:27.896Z,100231.63
2022-10-06T05:36:56.301Z,100149.97
2022-10-06T05:39:23.335Z,100185.34
2022-10-06T05:41:55.361Z,100224.75
2022-10-06T05:44:22.331Z,100185.06
2022-10-06T05:46:49.575Z,100202.06
2022-10-06T05:49:16.942Z,100213.28
2022-10-06T05:52:09.941Z,100179.09
2022-10-06T05:54:37.194Z,100200.16
2022-10-06T05:57:06.075Z,100242.72
2022-10-06T05:59:34.280Z,100242.03
2022-10-06T06:02:03.078Z,100206.94
2022-10-06T06:04:38.028Z,100223.25
2022-10-06T06:07:05.822Z,100211.66
2022-10-06T06:09:33.480Z,100217.31
2022-10-06T06:12:02.597Z,100239.22
2022-10-06T06:15:06.190Z,100209.38
2022-10-06T06:17:38.613Z,100232.28
2022-10-06T06:20:07.521Z,100261.78
2022-10-06T06:22:35.840Z,100229.09
2022-10-06T06:25:03.932Z,100254.63
2022-10-06T06:27:34.907Z,100286.50
2022-10-06T06:30:03.094Z,100271.28
2022-10-06T06:32:31.184Z,100262.91
2022-10-06T06:34:59.019Z,100262.47
2022-10-06T06:37:26.191Z,100239.78
2022-10-06T06:39:53.082Z,100264.13
2022-10-06T06:42:21.794Z,100275.69
2022-10-06T06:44:48.957Z,100281.63
2022-10-06T06:47:36.451Z,100246.69
2022-10-06T06:50:10.149Z,100300.00
2022-10-06T06:52:38.891Z,100304.94
2022-10-06T06:55:08.329Z,100297.41
2022-10-06T06:57:35.383Z,100334.44
2022-10-06T07:00:08.534Z,100330.06
2022-10-06T07:02:37.996Z,100298.94
2022-10-06T07:05:05.658Z,100342.34
2022-10-06T07:07:32.973Z,100361.63
2022-10-06T07:10:00.761Z,100348.09
2022-10-06T07:12:29.552Z,100331.31
2022-10-06T07:15:16.588Z,100308.88
2022-10-06T07:18:05.340Z,100343.31
2022-10-06T07:20:51.241Z,100377.97
2022-10-06T07:23:39.916Z,100381.69
2022-10-06T07:26:11.870Z,100351.91
2022-10-06T07:28:42.495Z,100348.97
2022-10-06T07:31:10.846Z,100320.19
2022-10-06T07:33:40.759Z,100357.50
2022-10-06T07:36:09.707Z,100410.06
2022-10-06T07:38:37.588Z,100330.19
2022-10-06T07:41:18.817Z,100377.66
2022-10-06T07:43:50.125Z,100383.41
2022-10-06T07:46:19.616Z,100410.56
2022-10-06T07:49:07.226Z,100370.22
2022-10-06T07:51:34.292Z,100401.28
2022-10-06T07:54:02.676Z,100387.81
2022-10-06T07:56:50.137Z,100422.03
2022-10-06T07:59:20.182Z,100377.56
2022-10-06T08:01:47.628Z,100378.78
2022-10-06T08:04:14.723Z,100402.19
2022-10-06T08:06:42.420Z,100423.75
2022-10-06T08:09:10.336Z,100435.94
2022-10-06T08:11:37.214Z,100427.09
2022-10-06T08:14:04.501Z,100407.97
2022-10-06T08:16:31.470Z,100443.94
2022-10-06T08:21:47.412Z,100446.38
2022-10-06T08:24:14.465Z,100474.72
2022-10-06T08:26:41.722Z,100424.78
2022-10-06T08:29:08.637Z,100434.75
2022-10-06T08:31:35.736Z,100433.59
2022-10-06T08:34:12.050Z,100410.53
2022-10-06T08:36:39.561Z,100436.00
2022-10-06T08:39:07.257Z,100423.63
2022-10-06T08:41:39.839Z,100428.06
2022-10-06T08:44:15.815Z,100424.88
2022-10-06T08:47:01.423Z,100476.72
2022-10-06T08:49:38.433Z,100417.16
2022-10-06T08:52:35.620Z,100434.22
2022-10-06T08:55:27.561Z,100458.34
2022-10-06T08:58:23.083Z,100430.75
2022-10-06T09:00:50.885Z,100456.72
2022-10-06T09:03:23.887Z,100465.44
2022-10-06T09:06:03.970Z,100468.72
2022-10-06T09:08:53.581Z,100463.84
2022-10-06T09:11:43.732Z,100444.81
2022-10-06T09:14:21.513Z,100487.91
2022-10-06T09:16:55.126Z,100487.81
2022-10-06T09:19:33.893Z,100517.78
2022-10-06T09:22:04.817Z,100497.47
2022-10-06T09:24:42.427Z,100467.94
2022-10-06T09:27:28.740Z,100536.44
2022-10-06T09:29:56.043Z,100545.25
2022-10-06T09:32:24.288Z,100477.44
2022-10-06T09:35:02.655Z,100479.78
2022-10-06T09:37:49.737Z,100544.84
2022-10-06T09:40:36.627Z,100503.44
2022-10-06T09:43:22.084Z,100492.25
2022-10-06T09:45:51.520Z,100516.50
2022-10-06T09:48:25.104Z,100540.47
2022-10-06T09:51:08.508Z,100467.84
2022-10-06T09:53:37.640Z,100533.25
2022-10-06T09:56:10.552Z,100482.59
2022-10-06T09:58:39.481Z,100536.53
2022-10-06T10:01:09.567Z,100497.03
2022-10-06T10:04:20.571Z,100520.19
2022-10-06T10:06:48.023Z,100503.84
2022-10-06T10:09:21.768Z,100454.34
2022-10-06T10:12:24.693Z,100513.78
2022-10-06T10:14:56.492Z,100506.63
2022-10-06T10:17:49.664Z,100507.81
2022-10-06T10:20:34.109Z,100521.78
2022-10-06T10:23:30.113Z,100458.81
2022-10-06T10:26:26.275Z,100525.78
2022-10-06T10:29:01.696Z,100539.72
2022-10-06T10:31:49.802Z,100520.09
2022-10-06T10:34:42.073Z,100518.91
2022-10-06T10:37:33.687Z,100526.16
2022-10-06T10:40:36.091Z,100500.22
2022-10-06T10:43:24.561Z,100485.41
2022-10-06T10:46:28.691Z,100523.38
2022-10-06T10:49:18.239Z,100511.78
2022-10-06T10:52:13.840Z,100447.56
2022-10-06T10:55:14.278Z,100478.31
2022-10-06T10:57:44.126Z,100482.25
2022-10-06T11:00:25.943Z,100538.00
2022-10-06T11:02:56.823Z,100531.25
2022-10-06T11:06:03.472Z,100476.63
2022-10-06T11:09:08.686Z,100507.75
2022-10-06T11:12:03.656Z,100493.41
2022-10-06T11:15:01.927Z,100485.41
2022-10-06T11:17:44.838Z,100486.16
2022-10-06T11:20:45.087Z,100465.31
2022-10-06T11:23:39.553Z,100524.81
2022-10-06T11:26:58.346Z,100446.25
2022-10-06T11:29:37.457Z,100524.81
2022-10-06T11:32:40.197Z,100526.63
2022-10-06T11:35:22.068Z,100486.06
2022-10-06T11:38:16.115Z,100499.16
2022-10-06T11:41:18.394Z,100472.97
2022-10-06T11:44:13.543Z,100506.66
2022-10-06T11:46:51.328Z,100546.34
2022-10-06T11:49:31.628Z,100482.59
2022-10-06T11:52:08.630Z,100487.78
2022-10-06T11:54:47.657Z,100489.75
2022-10-06T11:57:29.329Z,100467.81
2022-10-06T12:00:17.439Z,100473.19
2022-10-06T12:02:47.121Z,100472.38
2022-10-06T12:05:54.236Z,100516.19
2022-10-06T12:08:08.876Z,100490.78
2022-10-06T12:10:36.002Z,100494.09
2022-10-06T12:14:01.230Z,100463.91
2022-10-06T12:19:42.285Z,100464.69
2022-10-06T12:22:26.978Z,100425.88
2022-10-06T12:25:15.958Z,100347.22
2022-10-06T12:28:19.579Z,100456.34
2022-10-06T12:31:21.251Z,100495.97
2022-10-06T12:33:50.126Z,100474.19
2022-10-06T12:36:20.364Z,100462.03
2022-10-06T12:39:20.561Z,100439.84
2022-10-06T12:42:18.409Z,100432.16
2022-10-06T12:44:49.900Z,100460.66
2022-10-06T12:47:34.898Z,100426.44
2022-10-06T12:50:12.116Z,100405.75
2022-10-06T12:52:59.117Z,100357.28
2022-10-06T12:55:46.117Z,100408.28
2022-10-06T12:58:32.279Z,100467.22
2022-10-06T13:01:09.022Z,100443.06
2022-10-06T13:03:37.347Z,100408.47
2022-10-06T13:06:08.735Z,100427.13
2022-10-06T13:08:38.509Z,100487.06
2022-10-06T13:11:27.291Z,100391.50
2022-10-06T13:14:08.031Z,100406.50
2022-10-06T13:16:41.061Z,100416.72
2022-10-06T13:19:28.216Z,100453.53
2022-10-06T13:21:55.448Z,100393.97
2022-10-06T13:24:27.089Z,100400.59
2022-10-06T13:26:54.590Z,100423.78
2022-10-06T13:29:25.656Z,100381.00
2022-10-06T13:31:55.703Z,100390.41
2022-10-06T13:34:43.877Z,100352.84
2022-10-06T13:37:15.724Z,100445.84
2022-10-06T13:39:43.076Z,100418.63
2022-10-06T13:42:17.763Z,100414.28
2022-10-06T13:44:56.635Z,100355.00
2022-10-06T13:47:27.083Z,100337.16
2022-10-06T13:50:06.980Z,100301.16
2022-10-06T13:52:37.095Z,100354.19
2022-10-06T13:55:15.177Z,100369.19
2022-10-06T13:57:47.924Z,100372.19
2022-10-06T14:00:15.223Z,100272.22
2022-10-06T14:02:47.531Z,100396.50
2022-10-06T14:05:45.890Z,100314.41
2022-10-06T14:08:12.916Z,100321.38
2022-10-06T14:10:48.830Z,100342.22
2022-10-06T14:13:28.095Z,100345.06
2022-10-06T14:16:02.150Z,100363.66
2022-10-06T14:18:43.024Z,100388.38
2022-10-06T14:21:36.826Z,100378.75
2022-10-06T14:24:19.091Z,100296.88
2022-10-06T14:26:49.812Z,100352.00
2022-10-06T14:29:18.659Z,100346.19
2022-10-06T14:31:46.968Z,100342.19
2022-10-06T14:34:17.249Z,100407.31
2022-10-06T14:36:55.117Z,100304.94
2022-10-06T14:39:22.357Z,100330.44
2022-10-06T14:41:49.295Z,100338.59
2022-10-06T14:44:16.572Z,100353.41
2022-10-06T14:46:48.244Z,100278.22
2022-10-06T14:49:16.406Z,100295.00
2022-10-06T14:51:44.709Z,100329.13
2022-10-06T14:54:12.883Z,100358.06
2022-10-06T14:56:41.314Z,100260.75
2022-10-06T14:59:16.955Z,100283.97
2022-10-06T15:01:44.573Z,100279.78
2022-10-06T15:04:15.797Z,100300.38
2022-10-06T15:07:01.736Z,100296.63
2022-10-06T15:09:31.079Z,100245.06
2022-10-06T15:11:59.912Z,100318.34
2022-10-06T15:14:28.677Z,100312.88
2022-10-06T15:16:59.282Z,100256.78
2022-10-06T15:19:26.568Z,100237.97
2022-10-06T15:21:53.822Z,100245.50
2022-10-06T15:24:21.075Z,100272.50
2022-10-06T15:27:07.134Z,100313.34
2022-10-06T15:29:35.309Z,100260.19
2022-10-06T15:32:04.310Z,100232.53
2022-10-06T15:34:34.158Z,100277.06
2022-10-06T15:37:02.033Z,100252.47
2022-10-06T15:39:36.881Z,100266.44
2022-10-06T15:42:04.874Z,100267.97
2022-10-06T15:44:34.582Z,100270.63
2022-10-06T15:47:04.114Z,100271.63
2022-10-06T15:49:33.026Z,100249.06
2022-10-06T15:52:03.028Z,100246.31
2022-10-06T15:54:46.587Z,100296.09
2022-10-06T15:57:20.390Z,100286.59
2022-10-06T15:59:48.165Z,100267.53
2022-10-06T16:02:17.377Z,100278.63
2022-10-06T16:04:57.806Z,100308.41
2022-10-06T16:07:25.009Z,100280.31
2022-10-06T16:09:52.441Z,100280.31
2022-10-06T16:12:22.892Z,100267.69
2022-10-06T16:14:49.902Z,100285.94
2022-10-06T16:17:18.232Z,100233.56
2022-10-06T16:19:46.872Z,100293.25
2022-10-06T16:22:17.273Z,100227.25
2022-10-06T16:24:46.080Z,100243.50
2022-10-06T16:27:15.869Z,100290.13
2022-10-06T16:29:42.846Z,100247.91
2022-10-06T16:32:09.804Z,100267.81
2022-10-06T16:34:36.672Z,100254.34
2022-10-06T16:37:03.976Z,100209.72
2022-10-06T16:39:31.166Z,100221.34
2022-10-06T16:41:58.248Z,100222.53
2022-10-06T16:44:25.273Z,100235.97
2022-10-06T16:46:52.408Z,100213.00
2022-10-06T16:49:19.783Z,100220.19
2022-10-06T16:51:46.826Z,100190.75
2022-10-06T16:54:17.549Z,100228.16
2022-10-06T16:56:47.569Z,100225.75
2022-10-06T16:59:21.049Z,100201.84
2022-10-06T17:01:49.347Z,100235.28
2022-10-06T17:04:25.262Z,100199.06
2022-10-06T17:06:57.147Z,100249.63
2022-10-06T17:09:27.139Z,100173.97
2022-10-06T17:12:00.035Z,100205.03
2022-10-06T17:14:30.710Z,100237.63
2022-10-06T17:16:58.793Z,100169.94
2022-10-06T17:19:29.064Z,100218.50
2022-10-06T17:21:59.455Z,100193.06
2022-10-06T17:24:29.271Z,100210.91
2022-10-06T17:26:57.273Z,100212.53
2022-10-06T17:29:26.042Z,100241.63
2022-10-06T17:31:56.045Z,100173.91
2022-10-06T17:34:27.689Z,100196.97
2022-10-06T17:36:57.694Z,100212.50
2022-10-06T17:39:25.942Z,100233.25
2022-10-06T17:41:53.955Z,100185.84
2022-10-06T17:44:25.983Z,100254.28
2022-10-06T17:46:58.249Z,100209.41
2022-10-06T17:49:26.583Z,100256.78
2022-10-06T17:51:55.367Z,100172.69
2022-10-06T17:54:25.426Z,100265.47
2022-10-06T17:56:56.790Z,100236.88
2022-10-06T17:59:30.602Z,100191.00
2022-10-06T18:02:04.566Z,100247.16
2022-10-06T18:04:32.040Z,100196.56
2022-10-06T18:06:59.032Z,100201.69
2022-10-06T18:09:26.240Z,100209.25
2022-10-06T18:12:03.578Z,100209.50
2022-10-06T18:14:33.300Z,100206.78
2022-10-06T18:17:03.771Z,100236.25
2022-10-06T18:19:34.451Z,100227.56
2022-10-06T18:22:16.382Z,100212.88
2022-10-06T18:24:43.423Z,100162.53
2022-10-06T18:27:11.428Z,100174.84
2022-10-06T18:29:39.284Z,100232.22
2022-10-06T18:37:46.732Z,100202.47
2022-10-06T18:40:14.730Z,100208.69
2022-10-06T18:42:41.982Z,100224.16
2022-10-06T18:45:32.218Z,100226.19
2022-10-06T18:51:33.310Z,100241.34
2022-10-06T18:54:11.212Z,100200.69
2022-10-06T18:56:39.522Z,100226.25
2022-10-06T18:59:16.577Z,100183.19
2022-10-06T19:01:46.854Z,100258.06
2022-10-06T19:04:17.923Z,100208.31
2022-10-06T19:06:49.879Z,100207.03
2022-10-06T19:09:27.958Z,100260.59
2022-10-06T19:11:57.906Z,100210.34
2022-10-06T19:14:31.613Z,100232.66
2022-10-06T19:17:06.530Z,100281.38
2022-10-06T19:19:34.100Z,100268.69
2022-10-06T19:22:03.770Z,100185.38
2022-10-06T19:24:39.123Z,100205.13
2022-10-06T19:27:13.323Z,100207.44
2022-10-06T19:29:49.572Z,100225.28
2022-10-06T19:32:21.485Z,100235.78
2022-10-06T19:34:48.689Z,100279.63
2022-10-06T19:37:16.010Z,100282.91
2022-10-06T19:39:45.920Z,100221.53
2022-10-06T19:42:34.302Z,100214.22
2022-10-06T19:45:01.655Z,100232.13
2022-10-06T19:47:29.163Z,100220.50
2022-10-06T19:50:00.861Z,100254.84
2022-10-06T19:52:31.219Z,100237.88
2022-10-06T19:54:58.514Z,100263.03
2022-10-06T19:57:28.394Z,100225.34
2022-10-06T19:59:55.600Z,100221.75
2022-10-06T20:02:23.387Z,100251.81
2022-10-06T20:04:50.807Z,100233.34
2022-10-06T20:07:21.535Z,100183.50
2022-10-06T20:09:49.436Z,100218.13
2022-10-06T20:12:19.789Z,100249.09
2022-10-06T20:14:50.887Z,100227.56
2022-10-06T20:17:18.156Z,100266.66
2022-10-06T20:19:46.645Z,100263.63
2022-10-06T20:22:14.214Z,100298.78
2022-10-06T20:24:41.680Z,100204.75
2022-10-06T20:27:08.965Z,100262.53
2022-10-06T20:29:36.439Z,100193.50
2022-10-06T20:32:05.142Z,100202.81
2022-10-06T20:34:33.339Z,100253.25
2022-10-06T20:37:17.682Z,100252.94
2022-10-06T20:40:04.339Z,100238.97
2022-10-06T20:42:36.075Z,100230.19
2022-10-06T20:45:04.838Z,100199.06
2022-10-06T20:47:38.951Z,100245.22
2022-10-06T20:50:08.768Z,100221.34
2022-10-06T20:52:38.228Z,100194.88
2022-10-06T20:55:11.139Z,100202.03
2022-10-06T20:57:51.143Z,100221.19
2022-10-06T21:00:24.775Z,100260.22
2022-10-06T21:02:51.919Z,100242.72
2022-10-06T21:05:19.223Z,100198.88
2022-10-06T21:07:46.863Z,100206.72
2022-10-06T21:10:14.227Z,100234.59
2022-10-06T21:12:42.436Z,100265.84
2022-10-06T21:15:09.931Z,100208.88
2022-10-06T21:17:37.024Z,100275.31
2022-10-06T21:20:05.167Z,100278.91
2022-10-06T21:22:32.304Z,100240.09
2022-10-06T21:24:59.453Z,100188.50
2022-10-06T21:27:26.732Z,100225.16
2022-10-06T21:29:53.856Z,100174.13
2022-10-06T21:32:21.088Z,100183.59
2022-10-06T21:34:48.165Z,100181.94
2022-10-06T21:37:15.269Z,100209.34
2022-10-06T21:39:42.360Z,100206.00
2022-10-06T21:42:09.661Z,100149.22
2022-10-06T21:44:36.740Z,100200.81
2022-10-06T21:47:04.118Z,100176.44
2022-10-06T21:49:31.283Z,100222.22
2022-10-06T21:52:03.587Z,100189.31
2022-10-06T21:54:30.895Z,100199.19
2022-10-06T21:56:59.395Z,100185.97
2022-10-06T21:59:26.483Z,100253.72
2022-10-06T22:01:54.033Z,100191.69
2022-10-06T22:04:21.136Z,100217.91
2022-10-06T22:06:51.333Z,100248.94
2022-10-06T22:09:19.829Z,100159.94
2022-10-06T22:11:47.090Z,100221.16
2022-10-06T22:14:16.991Z,100181.31
2022-10-06T22:16:45.291Z,100192.50
2022-10-06T22:19:14.977Z,100183.00
2022-10-06T22:21:45.649Z,100249.94
2022-10-06T22:24:20.157Z,100182.25
2022-10-06T22:26:48.588Z,100180.66
2022-10-06T22:29:18.005Z,100199.38
2022-10-06T22:31:47.254Z,100174.94
2022-10-06T22:34:18.619Z,100200.88
2022-10-06T22:36:46.372Z,100248.38
2022-10-06T22:39:13.575Z,100163.91
2022-10-06T22:41:41.024Z,100161.31
2022-10-06T22:44:08.440Z,100113.97
2022-10-06T22:46:37.973Z,100120.28
2022-10-06T22:49:05.844Z,100160.06
2022-10-06T22:51:33.547Z,100147.66
2022-10-06T22:54:01.011Z,100120.78
2022-10-06T22:56:31.979Z,100126.66
2022-10-06T22:59:00.480Z,100115.31
2022-10-06T23:01:29.837Z,100053.81
2022-10-06T23:03:57.429Z,100101.69
2022-10-06T23:06:24.912Z,100106.09
2022-10-06T23:08:52.878Z,100134.94
2022-10-06T23:11:22.446Z,100146.41
2022-10-06T23:13:50.487Z,100108.06
2022-10-06T23:16:20.258Z,100131.13
2022-10-06T23:18:48.343Z,100095.22
2022-10-06T23:21:22.806Z,100107.09
2022-10-06T23:23:58.340Z,100111.22
2022-10-06T23:26:26.898Z,100106.25
2022-10-06T23:28:57.465Z,100111.47
2022-10-06T23:31:29.550Z,100109.13
2022-10-06T23:33:57.307Z,100135.59
2022-10-06T23:36:25.155Z,100160.34
2022-10-06T23:38:52.339Z,100121.56
2022-10-06T23:41:20.043Z,100096.81
2022-10-06T23:43:47.660Z,100143.84
2022-10-06T23:46:15.476Z,100069.50
2022-10-06T23:48:43.193Z,100084.41
2022-10-06T23:51:14.145Z,100030.94
2022-10-06T23:53:43.105Z,100075.22
2022-10-06T23:56:11.496Z,100121.09
2022-10-06T23:58:38.964Z,100147.72
